4XDAG LLHA-LLHA
Flight info
| Callsign | 4XDAG |
|---|---|
| Flight time | 0h 2m |
| Altitude | 2000 |
| Route | VFR |
| Aircraft | P28R/L-SDE2E3FGHIJ1LORVWXY/LB1 |
Departure
| Time | 2026-04-21 15:27 |
|---|---|
| Airport | Uri Michaeli Haifa International Airport (LLHA) |
Arrival
| Time | 2026-04-21 15:29 |
|---|---|
| Airport | Uri Michaeli Haifa International Airport (LLHA) |
| Time | Latitude | Longitude | Altitude | Speed | Heading |
|---|---|---|---|---|---|
| 2026-04-21 15:22 | 32.81230 | 35.04165 | 19 ft | 0 kts | 70° |
| 2026-04-21 15:23 | 32.81230 | 35.04166 | 19 ft | 0 kts | 69° |
| 2026-04-21 15:23 | 32.81233 | 35.04175 | 19 ft | 0 kts | 79° |
| 2026-04-21 15:24 | 32.81233 | 35.04177 | 19 ft | 3 kts | 92° |
| 2026-04-21 15:24 | 32.81183 | 35.04199 | 20 ft | 8 kts | 161° |
| 2026-04-21 15:24 | 32.81160 | 35.04216 | 20 ft | 0 kts | 105° |
| 2026-04-21 15:25 | 32.81145 | 35.04311 | 21 ft | 24 kts | 146° |
| 2026-04-21 15:25 | 32.80992 | 35.04385 | 21 ft | 22 kts | 158° |
| 2026-04-21 15:25 | 32.80940 | 35.04410 | 22 ft | 3 kts | 14° |
| 2026-04-21 15:25 | 32.80947 | 35.04407 | 22 ft | 0 kts | 338° |
| 2026-04-21 15:26 | 32.80950 | 35.04405 | 22 ft | 6 kts | 337° |
| 2026-04-21 15:26 | 32.81164 | 35.04310 | 21 ft | 56 kts | 340° |
| 2026-04-21 15:26 | 32.81617 | 35.04109 | 90 ft | 76 kts | 332° |
| 2026-04-21 15:26 | 32.82096 | 35.03890 | 335 ft | 77 kts | 331° |
| 2026-04-21 15:27 | 32.82613 | 35.03719 | 537 ft | 86 kts | 355° |
| 2026-04-21 15:27 | 32.83125 | 35.04119 | 784 ft | 89 kts | 40° |
| 2026-04-21 15:27 | 32.83375 | 35.04838 | 988 ft | 100 kts | 85° |
| 2026-04-21 15:27 | 32.83062 | 35.05557 | 1129 ft | 107 kts | 135° |
| 2026-04-21 15:28 | 32.82383 | 35.06172 | 1019 ft | 135 kts | 148° |
| 2026-04-21 15:28 | 32.81543 | 35.06757 | 992 ft | 143 kts | 154° |
| 2026-04-21 15:28 | 32.80691 | 35.06858 | 1023 ft | 121 kts | 232° |
| 2026-04-21 15:28 | 32.80381 | 35.06043 | 1023 ft | 103 kts | 257° |
| 2026-04-21 15:29 | 32.80129 | 35.05262 | 517 ft | 98 kts | 244° |
| 2026-04-21 15:29 | 32.80239 | 35.04709 | 178 ft | 64 kts | 332° |
| 2026-04-21 15:29 | 32.80643 | 35.04538 | 28 ft | 53 kts | 336° |
| 2026-04-21 15:29 | 32.80913 | 35.04421 | 22 ft | 31 kts | 340° |
| 2026-04-21 15:30 | 32.81092 | 35.04340 | 20 ft | 24 kts | 338° |
| 2026-04-21 15:30 | 32.81159 | 35.04237 | 20 ft | 15 kts | 268° |
| 2026-04-21 15:30 | 32.81211 | 35.04171 | 19 ft | 4 kts | 303° |
| 2026-04-21 15:30 | 32.81218 | 35.04168 | 19 ft | 0 kts | 21° |